Time;durP1;ratioP1;P1;durP2;ratioP2;P2;SDS_P1;SDS_P2;PMS_P1;PMS_P2;Temp;Humidity;BMP_temperature;BMP_pressure;BME280_temperature;BME280_humidity;BME280_pressure;Samples;Min_cycle;Max_cycle;Signal;HPM_P1;HPM_P2
2022/03/11 00:02:16;;;;;;;0.00;0.00;;;;;;;9.23;67.11;99687.91;7353449;19;20461;-61
2022/03/11 00:04:41;;;;;;;0.00;0.00;;;;;;;9.20;66.32;99688.84;7357831;19;20048;-61
2022/03/11 00:07:07;;;;;;;0.00;0.00;;;;;;;9.18;65.60;99682.00;7356602;19;20018;-61
2022/03/11 00:09:33;;;;;;;0.00;0.00;;;;;;;9.09;66.23;99684.00;7354377;19;20019;-61
2022/03/11 00:11:59;;;;;;;0.00;0.00;;;;;;;9.12;66.59;99684.78;7351675;19;20009;-61
2022/03/11 00:14:24;;;;;;;0.00;0.00;;;;;;;9.09;67.37;99668.38;7356846;19;20020;-61
2022/03/11 00:16:49;;;;;;;0.00;0.00;;;;;;;9.08;66.99;99669.28;7353115;19;20043;-61
2022/03/11 00:19:15;;;;;;;0.00;0.00;;;;;;;9.02;67.04;99660.78;7352591;19;20014;-61
2022/03/11 00:21:40;;;;;;;0.00;0.00;;;;;;;9.02;67.09;99661.66;7361653;19;20042;-61
2022/03/11 00:24:06;;;;;;;0.00;0.00;;;;;;;9.05;66.62;99658.94;7366629;19;20007;-61
2022/03/11 00:26:32;;;;;;;0.00;0.00;;;;;;;9.02;67.70;99659.06;7367026;19;20032;-60
2022/03/11 00:28:58;;;;;;;0.00;0.00;;;;;;;8.92;67.74;99639.44;7364139;19;20014;-61
2022/03/11 00:31:25;;;;;;;0.00;0.00;;;;;;;9.00;67.51;99655.63;7355268;19;20010;-61
2022/03/11 00:33:50;;;;;;;0.00;0.00;;;;;;;9.02;67.74;99645.16;7356282;19;20486;-61
2022/03/11 00:36:16;;;;;;;0.00;0.00;;;;;;;9.03;67.45;99639.94;7356514;19;20130;-61
2022/03/11 00:38:42;;;;;;;0.00;0.00;;;;;;;9.05;67.76;99645.06;7356665;19;20036;-61
2022/03/11 00:41:07;;;;;;;0.10;0.10;;;;;;;9.08;67.15;99651.03;7353234;19;20006;-61
2022/03/11 00:43:33;;;;;;;0.00;0.00;;;;;;;9.09;66.97;99649.28;7356090;19;20047;-61
2022/03/11 00:45:59;;;;;;;0.00;0.00;;;;;;;9.12;67.17;99643.97;7355177;19;20015;-61
2022/03/11 00:48:24;;;;;;;0.00;0.00;;;;;;;9.15;67.24;99648.22;7356624;19;20038;-61
2022/03/11 00:50:50;;;;;;;0.00;0.00;;;;;;;9.18;68.13;99655.94;7350542;19;20028;-61
2022/03/11 00:53:15;;;;;;;0.00;0.00;;;;;;;9.15;68.19;99635.19;7356149;19;20359;-61
2022/03/11 00:55:41;;;;;;;0.00;0.00;;;;;;;9.21;68.16;99640.19;7356856;19;20078;-62
2022/03/11 00:58:06;;;;;;;0.00;0.00;;;;;;;9.24;67.94;99619.25;7356131;19;20031;-61
2022/03/11 01:00:32;;;;;;;0.00;0.00;;;;;;;9.26;67.87;99625.25;7351450;19;20372;-61
2022/03/11 01:02:58;;;;;;;0.00;0.00;;;;;;;9.25;67.62;99606.19;7349282;19;20021;-61
2022/03/11 01:05:24;;;;;;;0.00;0.00;;;;;;;9.32;67.29;99614.63;7356664;19;20010;-61
2022/03/11 01:07:50;;;;;;;0.00;0.00;;;;;;;9.36;67.59;99608.41;7353601;19;20014;-61
2022/03/11 01:10:16;;;;;;;0.00;0.00;;;;;;;9.38;67.36;99601.41;7353962;19;20006;-61
2022/03/11 01:12:43;;;;;;;0.00;0.00;;;;;;;9.40;67.48;99598.72;7361398;19;20010;-61
2022/03/11 01:15:09;;;;;;;0.00;0.00;;;;;;;9.39;67.92;99605.69;7358370;19;20040;-61
2022/03/11 01:17:34;;;;;;;0.00;0.00;;;;;;;9.41;67.53;99590.84;7361552;19;20018;-61
2022/03/11 01:20:00;;;;;;;0.00;0.00;;;;;;;9.41;66.92;99585.66;7361420;19;20086;-61
2022/03/11 01:22:25;;;;;;;0.00;0.00;;;;;;;9.46;66.84;99583.72;7353591;19;20010;-62
2022/03/11 01:24:51;;;;;;;0.00;0.00;;;;;;;9.46;67.27;99573.31;7353633;19;20014;-61
2022/03/11 01:27:16;;;;;;;0.00;0.00;;;;;;;9.49;67.02;99581.03;7353882;19;20043;-61
2022/03/11 01:29:42;;;;;;;0.00;0.00;;;;;;;9.52;66.67;99567.84;7354745;19;20015;-61
2022/03/11 01:32:07;;;;;;;0.10;0.10;;;;;;;9.49;66.77;99562.78;7355605;19;20014;-59
2022/03/11 01:34:33;;;;;;;0.00;0.00;;;;;;;9.40;66.92;99542.25;7351312;19;20364;-61
2022/03/11 01:36:59;;;;;;;0.00;0.00;;;;;;;9.55;67.02;99567.75;7354936;19;21700;-61
2022/03/11 01:39:24;;;;;;;0.00;0.00;;;;;;;9.46;66.88;99544.63;7353705;19;20034;-60
2022/03/11 01:41:50;;;;;;;0.00;0.00;;;;;;;9.58;66.64;99565.06;7355585;19;20015;-61
2022/03/11 01:44:15;;;;;;;0.00;0.00;;;;;;;9.58;66.88;99567.66;7354436;19;20097;-60
2022/03/11 01:46:40;;;;;;;0.00;0.00;;;;;;;9.58;66.81;99559.84;7349358;19;20007;-61
2022/03/11 01:49:09;;;;;;;0.00;0.00;;;;;;;9.61;66.69;99557.09;7352886;19;20050;-61
2022/03/11 01:51:39;;;;;;;0.00;0.00;;;;;;;9.54;66.71;99529.59;7351985;19;20573;-61
2022/03/11 01:54:05;;;;;;;0.10;0.10;;;;;;;9.64;66.39;99540.50;7352181;19;20092;-61
2022/03/11 01:56:31;;;;;;;0.00;0.00;;;;;;;9.58;66.68;99532.94;7356166;19;20011;-60
2022/03/11 01:58:57;;;;;;;0.00;0.00;;;;;;;9.64;66.85;99534.44;7353974;19;20055;-61
2022/03/11 02:01:23;;;;;;;0.00;0.00;;;;;;;9.64;66.68;99526.63;7350430;19;20586;-61
2022/03/11 02:03:50;;;;;;;0.00;0.00;;;;;;;9.53;66.38;99507.03;7350146;19;20870;-61
2022/03/11 02:06:16;;;;;;;0.00;0.00;;;;;;;9.54;66.59;99500.91;7353703;19;20027;-61
2022/03/11 02:08:42;;;;;;;0.00;0.00;;;;;;;9.67;66.14;99492.63;7351260;19;20907;-60
2022/03/11 02:11:09;;;;;;;0.00;0.00;;;;;;;9.67;66.41;99509.09;7354822;19;20125;-61
2022/03/11 02:13:52;;;;;;;0.10;0.10;;;;;;;9.60;66.35;99492.84;7356793;19;20702;-61
2022/03/11 02:16:23;;;;;;;0.00;0.00;;;;;;;9.65;66.37;99492.69;7350893;19;20784;-61
2022/03/11 02:18:49;;;;;;;0.00;0.00;;;;;;;9.71;66.17;99505.47;7354616;19;20021;-60
2022/03/11 02:21:17;;;;;;;0.00;0.00;;;;;;;9.74;65.65;99501.91;7343279;19;20026;-61
2022/03/11 02:23:46;;;;;;;;;;;;;;;9.76;65.77;99492.28;7356725;19;20022;-61
2022/03/11 02:26:15;;;;;;;0.00;0.00;;;;;;;9.75;65.76;99490.56;7355378;19;19919;-61
2022/03/11 02:28:42;;;;;;;0.00;0.00;;;;;;;9.73;66.15;99471.53;7356813;19;20852;-61
2022/03/11 02:31:07;;;;;;;0.00;0.00;;;;;;;9.71;65.94;99474.19;7359327;19;20018;-60
2022/03/11 02:33:33;;;;;;;0.00;0.00;;;;;;;9.71;66.37;99473.34;7359523;19;20046;-60
2022/03/11 02:35:59;;;;;;;0.00;0.00;;;;;;;9.62;66.12;99464.13;7359806;19;20121;-60
2022/03/11 02:38:25;;;;;;;0.00;0.00;;;;;;;9.74;66.36;99462.81;7355059;19;20411;-60
2022/03/11 02:40:51;;;;;;;0.00;0.00;;;;;;;9.77;66.10;99457.47;7361324;19;20372;-60
2022/03/11 02:43:17;;;;;;;0.00;0.00;;;;;;;9.75;66.23;99439.28;7361067;19;21958;-60
2022/03/11 02:45:42;;;;;;;0.00;0.00;;;;;;;9.78;65.83;99440.91;7360971;19;20023;-61
2022/03/11 02:48:08;;;;;;;0.08;0.08;;;;;;;9.76;66.18;99417.50;7357124;19;20010;-60
2022/03/11 02:50:34;;;;;;;0.00;0.00;;;;;;;9.72;66.26;99394.22;7359639;19;20018;-61
2022/03/11 02:52:59;;;;;;;0.05;0.05;;;;;;;9.84;66.11;99396.38;7358122;19;20018;-61
2022/03/11 02:55:25;;;;;;;0.00;0.00;;;;;;;9.82;65.78;99404.22;7359835;19;20015;-61
2022/03/11 02:57:50;;;;;;;0.00;0.00;;;;;;;9.87;65.75;99396.22;7352973;19;20038;-61
2022/03/11 03:00:16;;;;;;;0.00;0.00;;;;;;;9.72;66.22;99370.78;7355906;19;20124;-60
2022/03/11 03:02:41;;;;;;;0.00;0.00;;;;;;;9.89;66.16;99389.19;7351852;19;20655;-60
2022/03/11 03:05:07;;;;;;;0.00;0.00;;;;;;;9.88;65.95;99387.47;7355235;19;20038;-61
2022/03/11 03:07:33;;;;;;;0.00;0.00;;;;;;;9.87;66.00;99391.84;7354442;19;20006;-61
2022/03/11 03:10:10;;;;;;;0.03;0.03;;;;;;;9.88;65.98;99382.25;5659798;19;10020762;-60
2022/03/11 03:12:38;;;;;;;0.00;0.00;;;;;;;9.88;65.66;99383.13;3240338;19;10001238;-61
2022/03/11 03:15:04;;;;;;;0.00;0.00;;;;;;;9.88;65.79;99375.31;7351209;19;20812;-60
2022/03/11 03:17:29;;;;;;;0.10;0.10;;;;;;;9.89;65.58;99383.97;7357945;19;20458;-61
2022/03/11 03:19:54;;;;;;;0.00;0.00;;;;;;;9.90;65.64;99370.03;7352504;19;20018;-61
2022/03/11 03:22:20;;;;;;;0.00;0.00;;;;;;;9.90;65.64;99363.97;7353207;19;20019;-60
2022/03/11 03:24:47;;;;;;;0.00;0.00;;;;;;;9.88;65.78;99356.19;7355650;19;20010;-60
2022/03/11 03:27:12;;;;;;;0.00;0.00;;;;;;;9.91;65.80;99345.66;7353457;19;20014;-61
2022/03/11 03:29:38;;;;;;;0.00;0.00;;;;;;;9.92;65.81;99339.50;7352784;19;20641;-59
2022/03/11 03:32:04;;;;;;;0.00;0.00;;;;;;;9.95;65.77;99330.72;7356548;19;20070;-61
2022/03/11 03:34:32;;;;;;;0.00;0.00;;;;;;;9.87;65.81;99303.19;7353893;19;20037;-61
2022/03/11 03:37:00;;;;;;;0.00;0.00;;;;;;;9.94;65.82;99310.78;7354097;19;20032;-60
2022/03/11 03:39:26;;;;;;;0.00;0.00;;;;;;;9.98;66.03;99315.78;7348308;19;20923;-60
2022/03/11 03:41:53;;;;;;;0.00;0.00;;;;;;;10.00;66.11;99302.69;7355303;19;20018;-61
2022/03/11 03:44:19;;;;;;;0.00;0.00;;;;;;;10.00;65.89;99303.53;7357000;19;20081;-61
2022/03/11 03:46:44;;;;;;;0.00;0.00;;;;;;;10.01;65.86;99297.41;7353796;19;20118;-60
2022/03/11 03:49:10;;;;;;;0.00;0.00;;;;;;;10.03;65.61;99303.38;7354753;19;20031;-60
2022/03/11 03:51:38;;;;;;;0.00;0.00;;;;;;;10.06;65.75;99286.78;7356033;19;20010;-60
2022/03/11 03:54:04;;;;;;;0.00;0.00;;;;;;;10.07;65.61;99284.09;7343178;19;20034;-61
2022/03/11 03:56:30;;;;;;;0.00;0.00;;;;;;;10.07;66.01;99273.66;7357506;19;20013;-60
2022/03/11 03:58:55;;;;;;;0.00;0.00;;;;;;;10.09;66.01;99261.41;7346530;19;20018;-61
2022/03/11 04:01:20;;;;;;;0.03;0.03;;;;;;;10.10;65.74;99251.81;7353339;19;20775;-61
2022/03/11 04:03:46;;;;;;;0.00;0.00;;;;;;;10.10;65.56;99244.84;7343578;19;20006;-61
2022/03/11 04:06:12;;;;;;;0.10;0.10;;;;;;;10.12;66.12;99250.84;7342282;19;20017;-61
2022/03/11 04:08:37;;;;;;;0.00;0.00;;;;;;;10.12;65.64;99239.56;7353383;19;20027;-60
2022/03/11 04:11:03;;;;;;;0.00;0.00;;;;;;;10.14;65.52;99251.63;7359206;19;20014;-60
2022/03/11 04:13:29;;;;;;;0.10;0.10;;;;;;;10.14;66.12;99237.75;7333278;19;20025;-60
2022/03/11 04:15:54;;;;;;;0.00;0.00;;;;;;;10.12;65.76;99222.13;7357510;19;20027;-59
2022/03/11 04:18:20;;;;;;;0.00;0.00;;;;;;;10.13;65.85;99215.16;7354101;19;20014;-60
2022/03/11 04:20:45;;;;;;;0.00;0.00;;;;;;;10.03;66.15;99204.28;7358356;19;20010;-61
2022/03/11 04:23:10;;;;;;;0.00;0.00;;;;;;;10.13;66.07;99210.78;7357082;19;20039;-60
2022/03/11 04:25:36;;;;;;;0.10;0.10;;;;;;;10.12;65.99;99229.13;7357733;19;20014;-61
2022/03/11 04:28:01;;;;;;;0.00;0.00;;;;;;;10.14;65.94;99209.91;7359090;19;20011;-60
2022/03/11 04:30:27;;;;;;;0.00;0.00;;;;;;;10.14;66.41;99196.84;7345537;19;20014;-61
2022/03/11 04:32:52;;;;;;;0.00;0.00;;;;;;;10.15;66.19;99202.91;7356272;19;20017;-61
2022/03/11 04:35:19;;;;;;;0.00;0.00;;;;;;;10.17;66.48;99195.00;7360131;19;20009;-60
2022/03/11 04:37:44;;;;;;;0.00;0.00;;;;;;;10.19;66.24;99198.38;7349941;19;20015;-60
2022/03/11 04:40:10;;;;;;;0.00;0.00;;;;;;;10.20;66.04;99185.28;7361636;19;20015;-60
2022/03/11 04:42:35;;;;;;;0.00;0.00;;;;;;;10.20;66.44;99185.28;7358752;19;20018;-60
2022/03/11 04:45:02;;;;;;;0.00;0.00;;;;;;;10.20;66.65;99174.00;7351925;19;20011;-60
2022/03/11 04:47:27;;;;;;;0.00;0.00;;;;;;;10.20;66.93;99168.81;7348459;19;20070;-60
2022/03/11 04:49:53;;;;;;;0.00;0.00;;;;;;;10.21;66.79;99170.47;7363902;19;20014;-60
2022/03/11 04:52:19;;;;;;;0.00;0.00;;;;;;;10.22;66.90;99172.16;7366087;19;20413;-61
2022/03/11 04:54:45;;;;;;;0.00;0.00;;;;;;;10.22;66.81;99167.78;7365764;19;20363;-58
2022/03/11 04:57:10;;;;;;;0.00;0.00;;;;;;;10.23;66.70;99161.66;7368324;19;20002;-60
2022/03/11 04:59:36;;;;;;;0.03;0.03;;;;;;;10.23;66.95;99155.59;7362830;19;20560;-60
2022/03/11 05:02:01;;;;;;;0.00;0.00;;;;;;;10.24;66.92;99160.78;7367299;19;20081;-61
2022/03/11 05:04:27;;;;;;;0.00;0.00;;;;;;;10.25;66.70;99156.41;7356176;19;20011;-61
2022/03/11 05:06:57;;;;;;;0.00;0.00;;;;;;;10.26;66.77;99150.28;1285047;19;10002605;-61
2022/03/11 05:09:23;;;;;;;0.00;0.00;;;;;;;10.27;66.59;99142.38;7357724;19;20023;-60
2022/03/11 05:11:48;;;;;;;0.03;0.03;;;;;;;10.25;66.92;99146.84;7351117;19;20006;-61
2022/03/11 05:14:14;;;;;;;0.00;0.00;;;;;;;10.25;67.08;99123.34;7355164;19;20042;-61
2022/03/11 05:16:39;;;;;;;0.00;0.00;;;;;;;10.25;67.01;99117.28;7357485;19;20030;-60
2022/03/11 05:19:04;;;;;;;0.10;0.10;;;;;;;10.25;66.92;99114.69;7353005;19;22456;-61
2022/03/11 05:21:30;;;;;;;0.00;0.00;;;;;;;10.25;67.31;99109.47;7357380;19;20085;-60
2022/03/11 05:23:55;;;;;;;0.00;0.00;;;;;;;10.26;67.11;99116.38;7350073;19;20017;-60
2022/03/11 05:26:28;;;;;;;0.00;0.00;;;;;;;10.29;66.80;99100.56;7350377;19;20026;-61
2022/03/11 05:28:58;;;;;;;0.00;0.00;;;;;;;10.31;67.09;99099.56;7353755;19;20014;-60
2022/03/11 05:31:28;;;;;;;0.00;0.00;;;;;;;10.31;67.00;99104.78;7352123;19;20015;-60
2022/03/11 05:33:54;;;;;;;0.00;0.00;;;;;;;10.30;67.56;99102.28;7357860;19;20013;-60
2022/03/11 05:36:20;;;;;;;0.00;0.00;;;;;;;10.30;67.75;99097.88;7342388;19;20087;-61
2022/03/11 05:38:45;;;;;;;0.00;0.00;;;;;;;10.31;67.25;99085.69;7356091;19;20415;-60
2022/03/11 05:41:11;;;;;;;0.00;0.00;;;;;;;10.35;67.12;99082.03;7362273;19;20006;-61
2022/03/11 05:43:36;;;;;;;0.00;0.00;;;;;;;10.35;67.18;99066.38;7364938;19;20026;-61
2022/03/11 05:46:03;;;;;;;0.00;0.00;;;;;;;10.25;67.41;99046.84;7368805;19;20075;-60
2022/03/11 05:48:29;;;;;;;0.00;0.00;;;;;;;10.38;67.58;99058.38;7343221;19;20097;-60
2022/03/11 05:50:55;;;;;;;0.00;0.00;;;;;;;10.38;67.39;99054.00;7360131;19;20432;-61
2022/03/11 05:53:20;;;;;;;0.00;0.00;;;;;;;10.34;67.30;99039.44;7350553;19;20026;-60
2022/03/11 05:55:45;;;;;;;0.00;0.00;;;;;;;10.40;67.40;99040.91;7352697;19;20010;-61
2022/03/11 05:58:11;;;;;;;0.08;0.08;;;;;;;10.42;67.69;99039.03;7353409;19;20006;-61
2022/03/11 06:00:37;;;;;;;0.00;0.00;;;;;;;10.44;67.54;99032.00;7362030;19;20022;-60
2022/03/11 06:03:02;;;;;;;0.00;0.00;;;;;;;10.45;67.60;99048.50;7365337;19;20010;-61
2022/03/11 06:05:28;;;;;;;0.00;0.00;;;;;;;10.47;67.59;99047.50;7356603;19;20050;-60
2022/03/11 06:07:53;;;;;;;0.00;0.00;;;;;;;10.49;67.68;99056.13;7362010;19;20478;-61
2022/03/11 06:10:19;;;;;;;0.00;0.00;;;;;;;10.50;67.66;99049.97;7363116;19;20014;-61
2022/03/11 06:12:44;;;;;;;0.00;0.00;;;;;;;10.51;67.75;99045.59;7364528;19;20026;-61
2022/03/11 06:15:11;;;;;;;0.00;0.00;;;;;;;10.54;67.41;99048.91;7356349;19;21371;-61
2022/03/11 06:17:37;;;;;;;0.00;0.00;;;;;;;10.55;67.58;99036.69;7360902;19;20573;-61
2022/03/11 06:20:04;;;;;;;0.00;0.00;;;;;;;10.53;67.92;99036.75;7361094;19;20006;-61
2022/03/11 06:22:29;;;;;;;0.00;0.00;;;;;;;10.58;67.74;99042.59;7362729;19;20007;-60
2022/03/11 06:24:56;;;;;;;0.10;0.10;;;;;;;10.60;67.71;99032.94;7360463;19;20010;-61
2022/03/11 06:27:24;;;;;;;0.00;0.00;;;;;;;10.60;68.10;99032.94;7354780;19;20010;-60
2022/03/11 06:29:50;;;;;;;0.00;0.00;;;;;;;10.61;67.82;99029.41;7368053;19;20479;-60
2022/03/11 06:32:15;;;;;;;0.00;0.00;;;;;;;10.64;67.52;99034.47;7364449;19;20018;-60
2022/03/11 06:34:41;;;;;;;0.00;0.00;;;;;;;10.62;67.59;99019.81;7357540;19;20018;-61
2022/03/11 06:37:06;;;;;;;0.00;0.00;;;;;;;10.67;67.51;99027.41;7360668;19;20043;-61
2022/03/11 06:39:32;;;;;;;0.00;0.00;;;;;;;10.68;67.99;99019.50;7354568;19;20015;-60
2022/03/11 06:41:57;;;;;;;0.00;0.00;;;;;;;10.70;68.05;99011.59;7358906;19;20017;-61
2022/03/11 06:44:23;;;;;;;0.00;0.00;;;;;;;10.71;67.80;99015.91;7363769;19;20014;-60
2022/03/11 06:46:48;;;;;;;0.00;0.00;;;;;;;10.73;67.43;99017.50;7360511;19;20574;-61
2022/03/11 06:49:14;;;;;;;0.00;0.00;;;;;;;10.76;67.34;99011.28;7354153;19;20081;-60
2022/03/11 06:51:39;;;;;;;0.00;0.00;;;;;;;10.75;67.47;98999.16;7364761;19;20025;-60
2022/03/11 06:54:07;;;;;;;0.00;0.00;;;;;;;10.78;67.41;99009.44;7351265;19;20010;-60
2022/03/11 06:56:35;;;;;;;0.10;0.10;;;;;;;10.79;67.52;98998.06;7355919;19;20018;-61
2022/03/11 06:59:02;;;;;;;0.00;0.00;;;;;;;10.82;67.14;98990.09;7354718;19;20010;-61
2022/03/11 07:01:33;;;;;;;0.00;0.00;;;;;;;10.84;66.99;99001.28;1335150;19;10002237;-61
2022/03/11 07:04:00;;;;;;;0.00;0.00;;;;;;;10.75;67.05;98989.56;7348886;19;20530;-60
2022/03/11 07:06:26;;;;;;;0.00;0.00;;;;;;;10.83;67.13;98991.75;7360754;19;20466;-61
2022/03/11 07:08:51;;;;;;;0.00;0.00;;;;;;;10.84;66.88;98998.66;7357277;19;20018;-60
2022/03/11 07:11:17;;;;;;;0.00;0.00;;;;;;;10.83;67.58;98992.59;7359726;19;20014;-61
2022/03/11 07:13:44;;;;;;;0.00;0.00;;;;;;;10.77;67.29;98976.41;7356716;19;20018;-61
2022/03/11 07:16:10;;;;;;;0.00;0.00;;;;;;;10.83;67.53;98979.56;7357912;19;20015;-59
2022/03/11 07:18:36;;;;;;;0.00;0.00;;;;;;;10.78;67.28;98972.88;7355579;19;20819;-60
2022/03/11 07:21:02;;;;;;;0.00;0.00;;;;;;;10.87;67.96;98975.03;7360025;19;20017;-61
2022/03/11 07:23:28;;;;;;;0.05;0.05;;;;;;;10.82;67.80;98963.97;7365985;19;20124;-60
2022/03/11 07:25:54;;;;;;;0.00;0.00;;;;;;;10.88;67.95;98963.66;7358806;19;20018;-61
2022/03/11 07:28:20;;;;;;;0.00;0.00;;;;;;;10.76;67.68;98944.25;7354015;19;20015;-61
2022/03/11 07:30:46;;;;;;;0.05;0.05;;;;;;;10.85;67.37;98953.38;7353742;19;20014;-60
2022/03/11 07:33:12;;;;;;;0.00;0.00;;;;;;;10.93;67.97;98966.88;7353729;19;20432;-59
2022/03/11 07:35:38;;;;;;;0.00;0.00;;;;;;;10.94;67.72;98959.88;7356274;19;20089;-61
2022/03/11 07:38:04;;;;;;;0.00;0.00;;;;;;;10.99;67.98;98963.09;7354429;19;20034;-61
2022/03/11 07:40:30;;;;;;;0.00;0.00;;;;;;;10.97;68.19;98947.50;7353186;19;20293;-60
2022/03/11 07:42:55;;;;;;;0.00;0.00;;;;;;;10.85;67.52;98932.50;7321497;19;20058;-61
2022/03/11 07:45:21;;;;;;;0.00;0.00;;;;;;;11.02;68.13;98940.28;7351237;19;20163;-60
2022/03/11 07:47:46;;;;;;;0.00;0.00;;;;;;;11.03;68.11;98941.94;7349417;19;20014;-61
2022/03/11 07:50:12;;;;;;;0.10;0.10;;;;;;;11.03;68.22;98941.94;7351669;19;20002;-60
2022/03/11 07:52:39;;;;;;;0.00;0.00;;;;;;;10.98;68.86;98917.84;7348686;19;20030;-61
2022/03/11 07:55:09;;;;;;;0.00;0.00;;;;;;;11.06;68.89;98915.69;7356948;19;20010;-60
2022/03/11 07:57:39;;;;;;;0.00;0.00;;;;;;;11.05;68.86;98914.00;7360840;19;20553;-60
2022/03/11 08:00:08;;;;;;;0.00;0.00;;;;;;;11.06;69.19;98914.84;7349615;19;20010;-60
2022/03/11 08:02:34;;;;;;;0.00;0.00;;;;;;;11.08;68.85;98905.16;7352469;19;20036;-61
2022/03/11 08:05:00;;;;;;;0.00;0.00;;;;;;;11.04;69.06;98891.41;7352592;19;20045;-61
2022/03/11 08:07:26;;;;;;;0.00;0.00;;;;;;;11.07;69.21;98901.69;7364703;19;20006;-61
2022/03/11 08:09:52;;;;;;;0.00;0.00;;;;;;;11.09;68.96;98905.06;7358004;19;20565;-60
2022/03/11 08:12:18;;;;;;;0.00;0.00;;;;;;;11.07;69.44;98901.69;7367785;19;20010;-61
2022/03/11 08:14:44;;;;;;;0.00;0.00;;;;;;;11.06;69.65;98901.78;7360510;19;20082;-60
2022/03/11 08:17:10;;;;;;;0.00;0.00;;;;;;;11.06;69.69;98910.47;7363186;19;20078;-61
2022/03/11 08:19:36;;;;;;;0.10;0.10;;;;;;;11.04;69.11;98896.63;7357961;19;20048;-61
2022/03/11 08:22:02;;;;;;;0.00;0.00;;;;;;;11.03;69.73;98894.94;7332761;19;20010;-60
2022/03/11 08:24:28;;;;;;;0.00;0.00;;;;;;;11.02;69.65;98898.47;7352055;19;20021;-61
2022/03/11 08:26:54;;;;;;;0.00;0.00;;;;;;;11.02;69.67;98898.47;7357128;19;20019;-61
2022/03/11 08:29:20;;;;;;;0.00;0.00;;;;;;;11.02;69.34;98888.03;7343955;19;20018;-61
2022/03/11 08:31:47;;;;;;;0.00;0.00;;;;;;;11.02;69.59;98897.66;7356926;19;20006;-61
2022/03/11 08:34:12;;;;;;;0.00;0.00;;;;;;;11.00;69.62;98882.06;7355099;19;20010;-61
2022/03/11 08:36:39;;;;;;;0.00;0.00;;;;;;;10.87;70.48;98868.81;7360087;19;20014;-61
2022/03/11 08:39:05;;;;;;;0.07;0.07;;;;;;;10.97;70.71;98879.59;7358984;19;20030;-59
2022/03/11 08:41:32;;;;;;;0.00;0.00;;;;;;;11.00;70.66;98884.69;7357996;19;20425;-61
2022/03/11 08:43:59;;;;;;;0.00;0.00;;;;;;;10.98;71.16;98883.91;7344036;19;20473;-60
2022/03/11 08:46:26;;;;;;;0.00;0.00;;;;;;;10.96;70.30;98870.09;7355847;19;20017;-61
2022/03/11 08:48:51;;;;;;;0.00;0.00;;;;;;;10.89;70.26;98879.16;7358788;19;20112;-60
2022/03/11 08:51:17;;;;;;;0.00;0.00;;;;;;;10.87;70.62;98866.19;7355794;19;20070;-61
2022/03/11 08:53:43;;;;;;;0.00;0.00;;;;;;;10.86;71.74;98863.66;7352054;19;20021;-61
2022/03/11 08:56:08;;;;;;;0.00;0.00;;;;;;;10.82;70.75;98864.75;7351462;19;20018;-61
2022/03/11 08:58:33;;;;;;;0.00;0.00;;;;;;;10.79;70.87;98877.97;7348232;19;20014;-61
2022/03/11 09:01:01;;;;;;;0.03;0.03;;;;;;;10.78;71.78;98858.00;1777898;19;10021831;-61
2022/03/11 09:03:27;;;;;;;0.08;0.08;;;;;;;10.73;71.33;98860.84;6746026;19;10000468;-60
2022/03/11 09:05:53;;;;;;;0.00;0.00;;;;;;;10.71;71.85;98848.81;7357783;19;20046;-61
2022/03/11 09:08:18;;;;;;;0.00;0.00;;;;;;;10.70;72.94;98855.81;7363999;19;20042;-61
2022/03/11 09:10:44;;;;;;;0.00;0.00;;;;;;;10.69;72.77;98848.88;7358024;19;20031;-61
2022/03/11 09:13:10;;;;;;;0.00;0.00;;;;;;;10.70;72.38;98844.53;7360017;19;20117;-61
2022/03/11 09:15:35;;;;;;;0.00;0.00;;;;;;;10.69;72.72;98841.03;7358651;19;20022;-60
2022/03/11 09:18:01;;;;;;;0.00;0.00;;;;;;;10.69;72.70;98821.94;7361932;19;20015;-60
2022/03/11 09:20:26;;;;;;;0.00;0.00;;;;;;;10.67;72.75;98823.78;7359870;19;20085;-61
2022/03/11 09:22:52;;;;;;;0.00;0.00;;;;;;;10.66;73.20;98802.06;7350918;19;20015;-61
2022/03/11 09:25:18;;;;;;;0.00;0.00;;;;;;;10.66;73.11;98817.72;7351611;19;20015;-60
2022/03/11 09:27:44;;;;;;;0.00;0.00;;;;;;;10.69;72.90;98814.09;7346069;19;20773;-61
2022/03/11 09:30:11;;;;;;;0.00;0.00;;;;;;;10.71;72.79;98804.44;7350999;19;20057;-61
2022/03/11 09:32:39;;;;;;;0.00;0.00;;;;;;;10.73;72.88;98802.56;7356127;19;20034;-61
2022/03/11 09:35:06;;;;;;;0.10;0.10;;;;;;;10.73;72.98;98794.75;7350712;19;20067;-61
2022/03/11 09:37:31;;;;;;;0.00;0.00;;;;;;;10.76;72.20;98802.44;7338641;19;20025;-61
2022/03/11 09:39:57;;;;;;;0.08;0.08;;;;;;;10.76;72.92;98791.97;7352909;19;20010;-61
2022/03/11 09:42:22;;;;;;;0.00;0.00;;;;;;;10.75;72.59;98792.91;7350479;19;20015;-61
2022/03/11 09:44:54;;;;;;;0.00;0.00;;;;;;;10.79;72.49;98791.78;7352295;19;20773;-61
2022/03/11 09:47:20;;;;;;;0.00;0.00;;;;;;;10.78;72.17;98779.69;7351432;19;20018;-60
2022/03/11 09:49:49;;;;;;;0.00;0.00;;;;;;;10.79;72.23;98781.34;7342661;19;20011;-61
2022/03/11 09:52:17;;;;;;;0.00;0.00;;;;;;;10.78;72.50;98769.22;7352579;19;20002;-61
2022/03/11 09:54:45;;;;;;;0.00;0.00;;;;;;;10.78;72.35;98767.47;7348713;19;20062;-61
2022/03/11 09:57:12;;;;;;;0.00;0.00;;;;;;;10.75;72.83;98769.41;7350567;19;20861;-61
2022/03/11 09:59:37;;;;;;;0.00;0.00;;;;;;;10.74;71.97;98757.25;7353277;19;20814;-61
2022/03/11 10:02:12;;;;;;;0.00;0.00;;;;;;;10.71;71.80;98747.84;7355580;19;20783;-61
2022/03/11 10:04:37;;;;;;;0.00;0.00;;;;;;;10.69;72.31;98743.63;7339468;19;20038;-61
2022/03/11 10:07:04;;;;;;;0.00;0.00;;;;;;;10.65;72.91;98742.97;7355506;19;20002;-61
2022/03/11 10:09:31;;;;;;;0.00;0.00;;;;;;;10.61;72.30;98744.88;7346417;19;20050;-60
2022/03/11 10:11:57;;;;;;;0.00;0.00;;;;;;;10.58;72.93;98737.22;7350137;19;20039;-60
2022/03/11 10:14:38;;;;;;;0.00;0.00;;;;;;;10.56;72.34;98744.28;7347240;19;20011;-60
2022/03/11 10:17:17;;;;;;;0.00;0.00;;;;;;;10.49;73.29;98727.28;7344779;19;20834;-61
2022/03/11 10:20:07;;;;;;;0.00;0.00;;;;;;;10.46;72.79;98732.66;7347350;19;20010;-60
2022/03/11 10:22:33;;;;;;;0.00;0.00;;;;;;;10.39;74.77;98718.25;7350111;19;20018;-61
2022/03/11 10:25:05;;;;;;;0.00;0.00;;;;;;;10.38;73.99;98724.41;7341799;19;20090;-61
2022/03/11 10:27:31;;;;;;;0.10;0.10;;;;;;;10.35;74.04;98732.41;7350237;19;20023;-60
2022/03/11 10:30:02;;;;;;;0.00;0.00;;;;;;;10.34;74.69;98713.31;7349825;19;20006;-60
2022/03/11 10:32:27;;;;;;;0.00;0.00;;;;;;;10.30;74.56;98721.38;7353673;19;20070;-61
2022/03/11 10:34:53;;;;;;;0.00;0.00;;;;;;;10.26;75.24;98714.63;7358133;19;20097;-61
2022/03/11 10:37:19;;;;;;;0.00;0.00;;;;;;;10.23;74.73;98705.16;7346580;19;20093;-60
2022/03/11 10:39:47;;;;;;;0.00;0.00;;;;;;;10.22;74.85;98697.41;7356731;19;20908;-59
2022/03/11 10:42:12;;;;;;;0.00;0.00;;;;;;;10.18;75.54;98712.38;7343877;19;20011;-61
2022/03/11 10:44:39;;;;;;;0.00;0.00;;;;;;;10.18;75.03;98690.66;7349035;19;20041;-61
2022/03/11 10:47:22;;;;;;;0.00;0.00;;;;;;;10.14;75.32;98685.63;7340421;19;20010;-61
2022/03/11 10:49:52;;;;;;;0.00;0.00;;;;;;;10.12;75.99;98687.47;7349567;19;22309;-62
2022/03/11 10:52:48;;;;;;;0.00;0.00;;;;;;;10.13;75.07;98683.94;7351101;19;20117;-63
2022/03/11 10:55:19;;;;;;;0.00;0.00;;;;;;;10.01;75.71;98655.91;7252257;19;2004485;-62
2022/03/11 10:57:45;;;;;;;0.00;0.00;;;;;;;10.11;76.80;98670.13;7350951;19;19998;-63
2022/03/11 11:00:29;;;;;;;0.00;0.00;;;;;;;10.14;76.12;98664.78;7356738;19;20019;-63
2022/03/11 11:02:57;;;;;;;0.00;0.00;;;;;;;10.15;76.12;98676.03;7357136;19;20010;-63
2022/03/11 11:05:24;;;;;;;0.00;0.00;;;;;;;10.13;77.07;98668.28;7358924;19;20021;-63
2022/03/11 11:07:50;;;;;;;0.00;0.00;;;;;;;10.13;76.45;98663.06;7354374;19;20021;-62
2022/03/11 11:10:18;;;;;;;0.00;0.00;;;;;;;10.19;77.09;98661.91;7357365;19;20049;-63
2022/03/11 11:12:45;;;;;;;0.00;0.00;;;;;;;10.19;76.93;98645.41;7357385;19;20085;-62
2022/03/11 11:15:11;;;;;;;0.00;0.00;;;;;;;10.21;77.28;98643.56;7357186;19;20029;-63
2022/03/11 11:17:39;;;;;;;0.00;0.00;;;;;;;10.22;77.16;98632.22;7359525;19;20081;-62
2022/03/11 11:20:15;;;;;;;0.00;0.00;;;;;;;10.24;77.10;98623.41;7352090;19;20010;-63
2022/03/11 11:22:43;;;;;;;0.00;0.00;;;;;;;10.24;77.58;98625.16;7350990;19;20820;-64
2022/03/11 11:25:10;;;;;;;0.00;0.00;;;;;;;10.24;77.08;98617.34;7360290;19;20015;-64
2022/03/11 11:27:37;;;;;;;0.00;0.00;;;;;;;10.25;77.10;98624.25;7359503;19;20018;-63
2022/03/11 11:30:04;;;;;;;0.10;0.10;;;;;;;10.13;77.30;98597.88;7359122;19;20013;-63
2022/03/11 11:32:32;;;;;;;0.00;0.00;;;;;;;10.27;77.13;98617.19;7342522;19;20022;-64
2022/03/11 11:35:25;;;;;;;0.00;0.00;;;;;;;10.28;76.94;98609.25;7356910;19;20054;-63